Time,TemperatureF,DewpointF,PressureIn,WindDirection,WindDirectionDegrees,WindSpeedMPH,WindSpeedGustMPH,Humidity,HourlyPrecipIn,Conditions,Clouds,dailyrainin,SoftwareType,DateUTC
2013-03-08 00:07:00,36.4,29.0,30.13,NW,315,0.0,1.0,73,0.00,,,0.00,weatherlink.com 1.10,2013-03-08 05:07:00,
2013-03-08 00:22:00,35.9,28.0,30.14,NW,312,0.0,2.0,74,0.00,,,0.00,weatherlink.com 1.10,2013-03-08 05:22:00,
2013-03-08 00:37:00,35.8,29.0,30.14,NW,309,0.0,3.0,75,0.00,,,0.00,weatherlink.com 1.10,2013-03-08 05:37:00,
2013-03-08 00:52:00,35.7,29.0,30.14,NW,309,0.0,2.0,75,0.00,,,0.00,weatherlink.com 1.10,2013-03-08 05:52:00,
2013-03-08 01:07:00,35.6,28.0,30.14,WNW,299,0.0,3.0,74,0.00,,,0.00,weatherlink.com 1.10,2013-03-08 06:07:00,
2013-03-08 01:22:00,35.7,28.0,30.14,WNW,300,0.0,2.0,74,0.00,,,0.00,weatherlink.com 1.10,2013-03-08 06:22:00,
2013-03-08 01:37:00,35.9,28.0,30.14,WNW,301,0.0,2.0,74,0.00,,,0.00,weatherlink.com 1.10,2013-03-08 06:37:00,
2013-03-08 01:52:00,36.0,28.0,30.14,WNW,300,0.0,0.0,74,0.00,,,0.00,weatherlink.com 1.10,2013-03-08 06:52:00,
2013-03-08 02:07:00,35.8,29.0,30.14,WNW,300,0.0,0.0,75,0.00,,,0.00,weatherlink.com 1.10,2013-03-08 07:07:00,
2013-03-08 02:22:00,35.6,28.0,30.14,WNW,301,0.0,1.0,75,0.00,,,0.00,weatherlink.com 1.10,2013-03-08 07:22:00,
2013-03-08 02:37:00,35.7,28.0,30.13,WNW,301,0.0,0.0,74,0.00,,,0.00,weatherlink.com 1.10,2013-03-08 07:37:00,
2013-03-08 02:52:00,35.7,28.0,30.13,WNW,301,0.0,0.0,74,0.00,,,0.00,weatherlink.com 1.10,2013-03-08 07:52:00,
2013-03-08 03:07:00,35.3,28.0,30.13,WNW,301,0.0,0.0,75,0.00,,,0.00,weatherlink.com 1.10,2013-03-08 08:07:00,
2013-03-08 03:22:00,34.7,28.0,30.12,WNW,301,0.0,0.0,76,0.00,,,0.00,weatherlink.com 1.10,2013-03-08 08:22:00,
2013-03-08 03:37:00,34.1,28.0,30.12,WNW,301,0.0,1.0,77,0.00,,,0.00,weatherlink.com 1.10,2013-03-08 08:37:00,
2013-03-08 03:52:00,33.7,28.0,30.12,WNW,301,0.0,0.0,79,0.00,,,0.00,weatherlink.com 1.10,2013-03-08 08:52:00,
2013-03-08 04:07:00,34.4,29.0,30.13,WNW,288,0.0,2.0,80,0.00,,,0.00,weatherlink.com 1.10,2013-03-08 09:07:00,
2013-03-08 04:22:00,35.1,30.0,30.13,WNW,288,0.0,1.0,80,0.00,,,0.00,weatherlink.com 1.10,2013-03-08 09:22:00,
2013-03-08 04:37:00,35.7,29.0,30.13,WNW,296,0.0,3.0,78,0.00,,,0.00,weatherlink.com 1.10,2013-03-08 09:37:00,
2013-03-08 04:52:00,35.8,29.0,30.13,WNW,302,0.0,4.0,77,0.00,,,0.00,weatherlink.com 1.10,2013-03-08 09:52:00,
2013-03-08 05:07:00,35.8,28.0,30.13,WNW,287,0.0,5.0,74,0.00,,,0.00,weatherlink.com 1.10,2013-03-08 10:07:00,
2013-03-08 05:22:00,35.7,27.0,30.13,NE,34,0.0,1.0,72,0.00,,,0.00,weatherlink.com 1.10,2013-03-08 10:22:00,
2013-03-08 05:37:00,35.9,28.0,30.14,WNW,299,4.0,6.0,72,0.00,,,0.00,weatherlink.com 1.10,2013-03-08 10:37:00,
2013-03-08 05:52:00,36.5,30.0,30.14,SSE,148,1.0,6.0,77,0.00,,,0.00,weatherlink.com 1.10,2013-03-08 10:52:00,
2013-03-08 06:07:00,36.3,29.0,30.15,WNW,285,0.0,3.0,75,0.00,,,0.00,weatherlink.com 1.10,2013-03-08 11:07:00,
2013-03-08 06:22:00,36.1,30.0,30.15,WNW,302,1.0,4.0,77,0.00,,,0.00,weatherlink.com 1.10,2013-03-08 11:22:00,
2013-03-08 06:37:00,35.6,29.0,30.15,NNE,27,0.0,5.0,77,0.00,,,0.00,weatherlink.com 1.10,2013-03-08 11:37:00,
2013-03-08 06:52:00,35.3,29.0,30.15,NW,322,0.0,1.0,77,0.00,,,0.00,weatherlink.com 1.10,2013-03-08 11:52:00,
2013-03-08 07:07:00,35.3,29.0,30.16,NNW,327,0.0,9.0,77,0.00,,,0.00,weatherlink.com 1.10,2013-03-08 12:07:00,
2013-03-08 07:22:00,35.6,29.0,30.16,NE,49,0.0,5.0,77,0.00,,,0.00,weatherlink.com 1.10,2013-03-08 12:22:00,
2013-03-08 07:37:00,35.9,28.0,30.16,NE,51,0.0,7.0,74,0.00,,,0.00,weatherlink.com 1.10,2013-03-08 12:37:00,
2013-03-08 07:52:00,36.3,29.0,30.17,NW,326,1.0,3.0,74,0.00,,,0.00,weatherlink.com 1.10,2013-03-08 12:52:00,
2013-03-08 08:07:00,36.0,30.0,30.18,NW,313,0.0,1.0,80,0.00,,,0.00,weatherlink.com 1.10,2013-03-08 13:07:00,
2013-03-08 08:22:00,36.4,31.0,30.18,NE,53,1.0,4.0,80,0.00,,,0.00,weatherlink.com 1.10,2013-03-08 13:22:00,
2013-03-08 08:37:00,38.1,29.0,30.17,NNW,333,2.0,5.0,70,0.00,,,0.00,weatherlink.com 1.10,2013-03-08 13:37:00,
2013-03-08 08:52:00,39.0,28.0,30.18,NNW,331,1.0,10.0,65,0.00,,,0.00,weatherlink.com 1.10,2013-03-08 13:52:00,
2013-03-08 09:07:00,38.7,27.0,30.17,WNW,300,4.0,8.0,64,0.00,,,0.00,weatherlink.com 1.10,2013-03-08 14:07:00,
2013-03-08 09:22:00,38.9,26.0,30.18,WNW,288,0.0,7.0,61,0.00,,,0.00,weatherlink.com 1.10,2013-03-08 14:22:00,
2013-03-08 09:38:00,39.8,26.0,30.18,East,88,0.0,5.0,59,0.00,,,0.00,weatherlink.com 1.10,2013-03-08 14:38:00,
2013-03-08 09:53:00,40.5,27.0,30.18,NNW,335,2.0,9.0,59,0.00,,,0.00,weatherlink.com 1.10,2013-03-08 14:53:00,
2013-03-08 10:08:00,41.5,27.0,30.18,West,278,5.0,8.0,56,0.00,,,0.00,weatherlink.com 1.10,2013-03-08 15:08:00,
2013-03-08 10:23:00,42.0,27.0,30.18,NNW,343,5.0,14.0,56,0.00,,,0.00,weatherlink.com 1.10,2013-03-08 15:23:00,
2013-03-08 10:38:00,42.1,28.0,30.18,North,355,8.0,15.0,57,0.00,,,0.00,weatherlink.com 1.10,2013-03-08 15:38:00,
2013-03-08 10:53:00,41.7,28.0,30.18,NW,309,1.0,9.0,58,0.00,,,0.00,weatherlink.com 1.10,2013-03-08 15:53:00,
2013-03-08 11:08:00,42.7,28.0,30.19,ENE,75,0.0,3.0,56,0.00,,,0.00,weatherlink.com 1.10,2013-03-08 16:08:00,
2013-03-08 11:23:00,42.5,28.0,30.18,WNW,288,5.0,7.0,58,0.00,,,0.00,weatherlink.com 1.10,2013-03-08 16:23:00,
2013-03-08 11:38:00,43.6,29.0,30.18,ENE,76,1.0,7.0,56,0.00,,,0.00,weatherlink.com 1.10,2013-03-08 16:38:00,
2013-03-08 11:53:00,44.4,29.0,30.19,NNE,28,1.0,6.0,55,0.00,,,0.00,weatherlink.com 1.10,2013-03-08 16:53:00,
2013-03-08 12:08:00,45.4,29.0,30.19,East,86,2.0,7.0,54,0.00,,,0.00,weatherlink.com 1.10,2013-03-08 17:08:00,
2013-03-08 12:23:00,45.7,29.0,30.18,ENE,59,2.0,7.0,52,0.00,,,0.00,weatherlink.com 1.10,2013-03-08 17:23:00,
2013-03-08 12:38:00,46.4,30.0,30.16,NNE,28,0.0,8.0,53,0.00,,,0.00,weatherlink.com 1.10,2013-03-08 17:38:00,
2013-03-08 13:08:00,47.6,31.0,30.15,WSW,245,2.0,11.0,52,0.00,,,0.00,weatherlink.com 1.10,2013-03-08 18:08:00,
2013-03-08 13:23:00,48.0,30.0,30.15,WSW,241,3.0,13.0,51,0.00,,,0.00,weatherlink.com 1.10,2013-03-08 18:23:00,
2013-03-08 13:38:00,48.5,30.0,30.14,WSW,241,1.0,6.0,50,0.00,,,0.00,weatherlink.com 1.10,2013-03-08 18:38:00,
2013-03-08 13:53:00,49.0,31.0,30.14,ENE,57,0.0,7.0,50,0.00,,,0.00,weatherlink.com 1.10,2013-03-08 18:53:00,
2013-03-08 14:08:00,49.2,31.0,30.14,WNW,288,1.0,8.0,50,0.00,,,0.00,weatherlink.com 1.10,2013-03-08 19:08:00,
2013-03-08 14:23:00,49.3,32.0,30.14,NE,40,1.0,12.0,51,0.00,,,0.00,weatherlink.com 1.10,2013-03-08 19:23:00,
2013-03-08 14:38:00,49.4,31.0,30.14,WNW,303,5.0,6.0,49,0.00,,,0.00,weatherlink.com 1.10,2013-03-08 19:38:00,
2013-03-08 14:54:00,48.2,31.0,30.15,NNE,13,1.0,13.0,51,0.00,,,0.00,weatherlink.com 1.10,2013-03-08 19:54:00,
2013-03-08 15:08:00,49.2,32.0,30.15,NW,304,3.0,8.0,51,0.00,,,0.00,weatherlink.com 1.10,2013-03-08 20:08:00,
2013-03-08 15:23:00,49.9,31.0,30.16,East,88,0.0,8.0,49,0.00,,,0.00,weatherlink.com 1.10,2013-03-08 20:23:00,
2013-03-08 15:38:00,49.9,32.0,30.16,NW,325,1.0,6.0,50,0.00,,,0.00,weatherlink.com 1.10,2013-03-08 20:38:00,
2013-03-08 15:53:00,50.5,33.0,30.16,North,355,5.0,5.0,51,0.00,,,0.00,weatherlink.com 1.10,2013-03-08 20:53:00,
2013-03-08 16:08:00,49.7,32.0,30.16,SW,223,2.0,3.0,51,0.00,,,0.00,weatherlink.com 1.10,2013-03-08 21:08:00,
2013-03-08 16:23:00,49.3,31.0,30.16,North,5,0.0,7.0,50,0.00,,,0.00,weatherlink.com 1.10,2013-03-08 21:23:00,
2013-03-08 16:38:00,48.5,31.0,30.16,NNE,22,0.0,5.0,52,0.00,,,0.00,weatherlink.com 1.10,2013-03-08 21:38:00,
2013-03-08 16:53:00,48.1,31.0,30.18,NNE,15,0.0,4.0,52,0.00,,,0.00,weatherlink.com 1.10,2013-03-08 21:53:00,
2013-03-08 17:08:00,47.5,31.0,30.18,WNW,286,0.0,4.0,54,0.00,,,0.00,weatherlink.com 1.10,2013-03-08 22:08:00,
2013-03-08 17:38:00,46.8,31.0,30.20,NNW,330,0.0,1.0,55,0.00,,,0.00,weatherlink.com 1.10,2013-03-08 22:38:00,
2013-03-08 17:53:00,46.5,31.0,30.21,NW,310,0.0,4.0,55,0.00,,,0.00,weatherlink.com 1.10,2013-03-08 22:53:00,
2013-03-08 18:08:00,46.0,31.0,30.21,NW,311,0.0,1.0,56,0.00,,,0.00,weatherlink.com 1.10,2013-03-08 23:08:00,
2013-03-08 18:23:00,45.3,31.0,30.22,NW,310,0.0,0.0,57,0.00,,,0.00,weatherlink.com 1.10,2013-03-08 23:23:00,
2013-03-08 18:39:00,44.6,30.0,30.22,NW,310,0.0,1.0,58,0.00,,,0.00,weatherlink.com 1.10,2013-03-08 23:39:00,
2013-03-08 18:54:00,43.9,30.0,30.22,NW,311,0.0,0.0,59,0.00,,,0.00,weatherlink.com 1.10,2013-03-08 23:54:00,
2013-03-08 19:09:00,43.5,30.0,30.23,NW,311,0.0,0.0,60,0.00,,,0.00,weatherlink.com 1.10,2013-03-09 00:09:00,
2013-03-08 19:24:00,43.5,32.0,30.23,NW,310,0.0,0.0,63,0.00,,,0.00,weatherlink.com 1.10,2013-03-09 00:24:00,
2013-03-08 19:39:00,43.2,31.0,30.24,NW,311,0.0,0.0,62,0.00,,,0.00,weatherlink.com 1.10,2013-03-09 00:39:00,
2013-03-08 19:54:00,42.7,31.0,30.25,NW,310,0.0,0.0,63,0.00,,,0.00,weatherlink.com 1.10,2013-03-09 00:54:00,
2013-03-08 20:09:00,42.0,30.0,30.25,NW,311,0.0,1.0,62,0.00,,,0.00,weatherlink.com 1.10,2013-03-09 01:09:00,
2013-03-08 20:24:00,41.7,29.0,30.25,NW,311,0.0,2.0,62,0.00,,,0.00,weatherlink.com 1.10,2013-03-09 01:24:00,
2013-03-08 20:39:00,41.3,29.0,30.25,NW,311,0.0,1.0,63,0.00,,,0.00,weatherlink.com 1.10,2013-03-09 01:39:00,
2013-03-08 20:54:00,40.8,29.0,30.25,NW,311,0.0,0.0,63,0.00,,,0.00,weatherlink.com 1.10,2013-03-09 01:54:00,
2013-03-08 21:09:00,40.4,29.0,30.25,NW,310,0.0,0.0,64,0.00,,,0.00,weatherlink.com 1.10,2013-03-09 02:09:00,
2013-03-08 21:24:00,40.4,29.0,30.25,NW,310,0.0,0.0,64,0.00,,,0.00,weatherlink.com 1.10,2013-03-09 02:24:00,
2013-03-08 21:39:00,40.6,29.0,30.25,NW,310,0.0,1.0,63,0.00,,,0.00,weatherlink.com 1.10,2013-03-09 02:39:00,
2013-03-08 21:54:00,40.4,29.0,30.26,NW,311,0.0,0.0,63,0.00,,,0.00,weatherlink.com 1.10,2013-03-09 02:54:00,
2013-03-08 22:09:00,39.5,29.0,30.26,NW,311,0.0,1.0,66,0.00,,,0.00,weatherlink.com 1.10,2013-03-09 03:09:00,
2013-03-08 22:24:00,37.7,28.0,30.26,NW,311,0.0,0.0,68,0.00,,,0.00,weatherlink.com 1.10,2013-03-09 03:24:00,
2013-03-08 22:39:00,36.7,27.0,30.26,NW,311,0.0,0.0,69,0.00,,,0.00,weatherlink.com 1.10,2013-03-09 03:39:00,
2013-03-08 22:54:00,35.9,28.0,30.26,NW,310,0.0,2.0,74,0.00,,,0.00,weatherlink.com 1.10,2013-03-09 03:54:00,
2013-03-08 23:09:00,35.0,28.0,30.25,NW,310,0.0,0.0,74,0.00,,,0.00,weatherlink.com 1.10,2013-03-09 04:09:00,
2013-03-08 23:24:00,34.1,27.0,30.25,NW,310,0.0,0.0,76,0.00,,,0.00,weatherlink.com 1.10,2013-03-09 04:24:00,
2013-03-08 23:39:00,33.1,27.0,30.25,NW,311,0.0,0.0,78,0.00,,,0.00,weatherlink.com 1.10,2013-03-09 04:39:00,
2013-03-08 23:54:00,32.2,27.0,30.25,NW,311,0.0,0.0,80,0.00,,,0.00,weatherlink.com 1.10,2013-03-09 04:54:00,